sensor_id;sensor_type;location;lat;lon;timestamp;pressure;altitude;pressure_sealevel;temperature
26158;BMP280;67284;44.782;10.282;2023-12-04T00:03:05;101777.91;;;7.35
26158;BMP280;67284;44.782;10.282;2023-12-04T00:07:57;101787.16;;;7.28
26158;BMP280;67284;44.782;10.282;2023-12-04T00:12:49;101780.72;;;7.48
26158;BMP280;67284;44.782;10.282;2023-12-04T00:17:41;101782.97;;;7.76
26158;BMP280;67284;44.782;10.282;2023-12-04T00:22:33;101779.34;;;7.65
26158;BMP280;67284;44.782;10.282;2023-12-04T00:27:25;101763.91;;;7.61
26158;BMP280;67284;44.782;10.282;2023-12-04T00:32:19;101767.09;;;7.49
26158;BMP280;67284;44.782;10.282;2023-12-04T00:37:11;101764.34;;;7.40
26158;BMP280;67284;44.782;10.282;2023-12-04T00:42:03;101759.88;;;7.30
26158;BMP280;67284;44.782;10.282;2023-12-04T00:46:55;101745.44;;;7.34
26158;BMP280;67284;44.782;10.282;2023-12-04T00:51:47;101741.13;;;7.31
26158;BMP280;67284;44.782;10.282;2023-12-04T00:56:39;101737.03;;;7.39
26158;BMP280;67284;44.782;10.282;2023-12-04T01:01:31;101735.00;;;7.25
26158;BMP280;67284;44.782;10.282;2023-12-04T01:06:23;101732.19;;;7.12
26158;BMP280;67284;44.782;10.282;2023-12-04T01:11:17;101732.13;;;7.07
26158;BMP280;67284;44.782;10.282;2023-12-04T01:16:08;101732.88;;;7.03
26158;BMP280;67284;44.782;10.282;2023-12-04T01:21:01;101737.16;;;7.03
26158;BMP280;67284;44.782;10.282;2023-12-04T01:25:54;101742.19;;;7.00
26158;BMP280;67284;44.782;10.282;2023-12-04T01:30:45;101732.84;;;7.02
26158;BMP280;67284;44.782;10.282;2023-12-04T01:35:37;101726.81;;;7.00
26158;BMP280;67284;44.782;10.282;2023-12-04T01:40:29;101721.69;;;7.00
26158;BMP280;67284;44.782;10.282;2023-12-04T01:45:21;101708.94;;;7.01
26158;BMP280;67284;44.782;10.282;2023-12-04T01:50:14;101713.09;;;6.95
26158;BMP280;67284;44.782;10.282;2023-12-04T01:55:08;101713.84;;;6.91
26158;BMP280;67284;44.782;10.282;2023-12-04T02:00:01;101713.75;;;6.86
26158;BMP280;67284;44.782;10.282;2023-12-04T02:05:01;101724.00;;;6.86
26158;BMP280;67284;44.782;10.282;2023-12-04T02:09:54;101728.22;;;6.86
26158;BMP280;67284;44.782;10.282;2023-12-04T02:14:46;101728.22;;;6.86
26158;BMP280;67284;44.782;10.282;2023-12-04T02:19:38;101750.31;;;6.81
26158;BMP280;67284;44.782;10.282;2023-12-04T02:24:30;101742.06;;;6.94
26158;BMP280;67284;44.782;10.282;2023-12-04T02:29:31;101744.72;;;7.00
26158;BMP280;67284;44.782;10.282;2023-12-04T02:34:24;101734.34;;;6.92
26158;BMP280;67284;44.782;10.282;2023-12-04T02:39:18;101732.09;;;7.06
26158;BMP280;67284;44.782;10.282;2023-12-04T02:44:10;101728.38;;;6.92
26158;BMP280;67284;44.782;10.282;2023-12-04T02:49:02;101735.06;;;6.87
26158;BMP280;67284;44.782;10.282;2023-12-04T02:53:54;101745.25;;;6.84
26158;BMP280;67284;44.782;10.282;2023-12-04T02:58:46;101742.56;;;6.78
26158;BMP280;67284;44.782;10.282;2023-12-04T03:03:37;101735.72;;;6.77
26158;BMP280;67284;44.782;10.282;2023-12-04T03:08:29;101734.69;;;6.69
26158;BMP280;67284;44.782;10.282;2023-12-04T03:13:21;101731.25;;;6.67
26158;BMP280;67284;44.782;10.282;2023-12-04T03:18:13;101742.31;;;6.68
26158;BMP280;67284;44.782;10.282;2023-12-04T03:23:05;101736.28;;;6.64
26158;BMP280;67284;44.782;10.282;2023-12-04T03:27:57;101734.59;;;6.65
26158;BMP280;67284;44.782;10.282;2023-12-04T03:32:49;101727.81;;;6.65
26158;BMP280;67284;44.782;10.282;2023-12-04T03:37:41;101716.72;;;6.66
26158;BMP280;67284;44.782;10.282;2023-12-04T03:42:33;101719.28;;;6.66
26158;BMP280;67284;44.782;10.282;2023-12-04T03:47:26;101717.41;;;6.59
26158;BMP280;67284;44.782;10.282;2023-12-04T03:52:18;101721.56;;;6.54
26158;BMP280;67284;44.782;10.282;2023-12-04T03:57:10;101734.59;;;6.65
26158;BMP280;67284;44.782;10.282;2023-12-04T04:02:02;101718.22;;;6.57
26158;BMP280;67284;44.782;10.282;2023-12-04T04:06:55;101717.63;;;6.68
26158;BMP280;67284;44.782;10.282;2023-12-04T04:11:46;101703.97;;;6.69
26158;BMP280;67284;44.782;10.282;2023-12-04T04:16:39;101705.72;;;6.70
26158;BMP280;67284;44.782;10.282;2023-12-04T04:21:31;101710.00;;;6.70
26158;BMP280;67284;44.782;10.282;2023-12-04T04:26:23;101705.66;;;6.67
26158;BMP280;67284;44.782;10.282;2023-12-04T04:31:15;101708.97;;;6.63
26158;BMP280;67284;44.782;10.282;2023-12-04T04:36:09;101700.41;;;6.61
26158;BMP280;67284;44.782;10.282;2023-12-04T04:41:01;101689.31;;;6.61
26158;BMP280;67284;44.782;10.282;2023-12-04T04:45:53;101688.56;;;6.66
26158;BMP280;67284;44.782;10.282;2023-12-04T04:50:45;101681.63;;;6.61
26158;BMP280;67284;44.782;10.282;2023-12-04T04:55:37;101688.41;;;6.57
26158;BMP280;67284;44.782;10.282;2023-12-04T05:00:39;101695.09;;;6.52
26158;BMP280;67284;44.782;10.282;2023-12-04T05:05:31;101697.72;;;6.55
26158;BMP280;67284;44.782;10.282;2023-12-04T05:10:23;101691.16;;;6.68
26158;BMP280;67284;44.782;10.282;2023-12-04T05:15:15;101693.03;;;6.74
26158;BMP280;67284;44.782;10.282;2023-12-04T05:20:08;101695.56;;;6.73
26158;BMP280;67284;44.782;10.282;2023-12-04T05:25:00;101714.91;;;6.62
26158;BMP280;67284;44.782;10.282;2023-12-04T05:29:53;101723.22;;;6.52
26158;BMP280;67284;44.782;10.282;2023-12-04T05:34:44;101709.50;;;6.49
26158;BMP280;67284;44.782;10.282;2023-12-04T05:39:37;101712.56;;;6.71
26158;BMP280;67284;44.782;10.282;2023-12-04T05:44:29;101719.84;;;6.53
26158;BMP280;67284;44.782;10.282;2023-12-04T05:49:21;101717.16;;;6.47
26158;BMP280;67284;44.782;10.282;2023-12-04T05:54:13;101710.47;;;6.54
26158;BMP280;67284;44.782;10.282;2023-12-04T05:59:05;101715.78;;;6.61
26158;BMP280;67284;44.782;10.282;2023-12-04T06:03:57;101708.75;;;6.53
26158;BMP280;67284;44.782;10.282;2023-12-04T06:08:49;101725.66;;;6.46
26158;BMP280;67284;44.782;10.282;2023-12-04T06:13:41;101726.59;;;6.50
26158;BMP280;67284;44.782;10.282;2023-12-04T06:18:33;101726.56;;;6.48
26158;BMP280;67284;44.782;10.282;2023-12-04T06:23:25;101711.41;;;6.57
26158;BMP280;67284;44.782;10.282;2023-12-04T06:28:17;101703.25;;;6.74
26158;BMP280;67284;44.782;10.282;2023-12-04T06:33:10;101695.47;;;6.69
26158;BMP280;67284;44.782;10.282;2023-12-04T06:38:06;101692.13;;;6.72
26158;BMP280;67284;44.782;10.282;2023-12-04T06:42:58;101674.50;;;6.86
26158;BMP280;67284;44.782;10.282;2023-12-04T06:47:51;101670.84;;;6.73
26158;BMP280;67284;44.782;10.282;2023-12-04T06:52:43;101669.19;;;6.75
26158;BMP280;67284;44.782;10.282;2023-12-04T06:57:35;101680.25;;;6.76
26158;BMP280;67284;44.782;10.282;2023-12-04T07:02:27;101685.25;;;6.70
26158;BMP280;67284;44.782;10.282;2023-12-04T07:07:19;101681.59;;;6.59
26158;BMP280;67284;44.782;10.282;2023-12-04T07:12:11;101696.00;;;6.54
26158;BMP280;67284;44.782;10.282;2023-12-04T07:17:03;101704.56;;;6.56
26158;BMP280;67284;44.782;10.282;2023-12-04T07:21:54;101709.81;;;6.62
26158;BMP280;67284;44.782;10.282;2023-12-04T07:26:46;101713.28;;;6.64
26158;BMP280;67284;44.782;10.282;2023-12-04T07:31:38;101722.56;;;6.61
26158;BMP280;67284;44.782;10.282;2023-12-04T07:36:30;101721.81;;;6.28
26158;BMP280;67284;44.782;10.282;2023-12-04T07:41:22;101721.66;;;6.21
26158;BMP280;67284;44.782;10.282;2023-12-04T07:46:14;101732.06;;;6.29
26158;BMP280;67284;44.782;10.282;2023-12-04T07:51:06;101726.88;;;6.26
26158;BMP280;67284;44.782;10.282;2023-12-04T07:56:02;101732.75;;;6.22
26158;BMP280;67284;44.782;10.282;2023-12-04T08:00:55;101718.25;;;6.21
26158;BMP280;67284;44.782;10.282;2023-12-04T08:05:47;101714.03;;;6.60
26158;BMP280;67284;44.782;10.282;2023-12-04T08:10:39;101695.59;;;6.74
26158;BMP280;67284;44.782;10.282;2023-12-04T08:15:34;101678.13;;;6.97
26158;BMP280;67284;44.782;10.282;2023-12-04T08:20:26;101662.44;;;7.22
26158;BMP280;67284;44.782;10.282;2023-12-04T08:25:30;101657.53;;;7.33
26158;BMP280;67284;44.782;10.282;2023-12-04T08:30:22;101657.69;;;7.42
26158;BMP280;67284;44.782;10.282;2023-12-04T08:35:13;101652.75;;;7.54
26158;BMP280;67284;44.782;10.282;2023-12-04T08:40:06;101658.78;;;7.55
26158;BMP280;67284;44.782;10.282;2023-12-04T08:45:00;101659.47;;;7.46
26158;BMP280;67284;44.782;10.282;2023-12-04T08:49:52;101658.78;;;7.11
26158;BMP280;67284;44.782;10.282;2023-12-04T08:54:44;101675.56;;;6.95
26158;BMP280;67284;44.782;10.282;2023-12-04T08:59:36;101660.91;;;6.88
26158;BMP280;67284;44.782;10.282;2023-12-04T09:04:29;101674.69;;;6.95
26158;BMP280;67284;44.782;10.282;2023-12-04T09:09:21;101661.91;;;6.95
26158;BMP280;67284;44.782;10.282;2023-12-04T09:14:13;101657.84;;;7.04
26158;BMP280;67284;44.782;10.282;2023-12-04T09:19:06;101634.94;;;7.12
26158;BMP280;67284;44.782;10.282;2023-12-04T09:23:58;101648.78;;;7.21
26158;BMP280;67284;44.782;10.282;2023-12-04T09:28:50;101656.94;;;7.04
26158;BMP280;67284;44.782;10.282;2023-12-04T09:33:43;101656.78;;;6.95
26158;BMP280;67284;44.782;10.282;2023-12-04T09:38:35;101675.41;;;6.88
26158;BMP280;67284;44.782;10.282;2023-12-04T09:43:31;101649.03;;;6.90
26158;BMP280;67284;44.782;10.282;2023-12-04T09:48:25;101628.25;;;7.20
26158;BMP280;67284;44.782;10.282;2023-12-04T09:53:18;101611.28;;;7.24
26158;BMP280;67284;44.782;10.282;2023-12-04T09:58:11;101590.34;;;7.48
26158;BMP280;67284;44.782;10.282;2023-12-04T10:03:05;101588.81;;;7.57
26158;BMP280;67284;44.782;10.282;2023-12-04T10:07:58;101585.03;;;7.37
26158;BMP280;67284;44.782;10.282;2023-12-04T10:12:50;101580.56;;;7.24
26158;BMP280;67284;44.782;10.282;2023-12-04T10:17:43;101580.28;;;7.10
26158;BMP280;67284;44.782;10.282;2023-12-04T10:22:35;101598.13;;;7.05
26158;BMP280;67284;44.782;10.282;2023-12-04T10:27:27;101597.16;;;6.99
26158;BMP280;67284;44.782;10.282;2023-12-04T10:32:19;101602.31;;;7.02
26158;BMP280;67284;44.782;10.282;2023-12-04T10:37:14;101596.41;;;7.04
26158;BMP280;67284;44.782;10.282;2023-12-04T10:42:06;101594.69;;;7.03
26158;BMP280;67284;44.782;10.282;2023-12-04T10:47:00;101576.88;;;7.11
26158;BMP280;67284;44.782;10.282;2023-12-04T10:51:55;101558.97;;;7.11
26158;BMP280;67284;44.782;10.282;2023-12-04T10:56:49;101544.34;;;7.04
26158;BMP280;67284;44.782;10.282;2023-12-04T11:01:44;101551.16;;;7.02
26158;BMP280;67284;44.782;10.282;2023-12-04T11:06:39;101522.22;;;7.06
26158;BMP280;67284;44.782;10.282;2023-12-04T11:11:34;101509.63;;;7.19
26158;BMP280;67284;44.782;10.282;2023-12-04T11:16:46;101508.91;;;7.27
26158;BMP280;67284;44.782;10.282;2023-12-04T11:21:39;101508.88;;;7.24
26158;BMP280;67284;44.782;10.282;2023-12-04T11:26:31;101501.97;;;7.21
26158;BMP280;67284;44.782;10.282;2023-12-04T11:31:24;101498.16;;;7.48
26158;BMP280;67284;44.782;10.282;2023-12-04T11:36:16;101484.69;;;7.61
26158;BMP280;67284;44.782;10.282;2023-12-04T11:41:19;101483.94;;;7.69
26158;BMP280;67284;44.782;10.282;2023-12-04T11:46:23;101472.94;;;7.76
26158;BMP280;67284;44.782;10.282;2023-12-04T11:56:39;101457.69;;;7.86
26158;BMP280;67284;44.782;10.282;2023-12-04T12:01:36;101459.31;;;7.77
26158;BMP280;67284;44.782;10.282;2023-12-04T12:06:28;101457.56;;;7.76
26158;BMP280;67284;44.782;10.282;2023-12-04T12:11:23;101461.69;;;7.67
26158;BMP280;67284;44.782;10.282;2023-12-04T12:16:15;101454.19;;;7.77
26158;BMP280;67284;44.782;10.282;2023-12-04T12:21:07;101452.47;;;7.77
26158;BMP280;67284;44.782;10.282;2023-12-04T12:25:59;101447.38;;;7.82
26158;BMP280;67284;44.782;10.282;2023-12-04T12:30:55;101443.16;;;7.84
26158;BMP280;67284;44.782;10.282;2023-12-04T12:35:47;101441.38;;;7.78
26158;BMP280;67284;44.782;10.282;2023-12-04T12:40:50;101439.69;;;7.82
26158;BMP280;67284;44.782;10.282;2023-12-04T12:45:43;101428.56;;;7.78
26158;BMP280;67284;44.782;10.282;2023-12-04T12:50:36;101423.28;;;7.68
26158;BMP280;67284;44.782;10.282;2023-12-04T12:55:28;101422.66;;;7.82
26158;BMP280;67284;44.782;10.282;2023-12-04T13:00:20;101408.22;;;7.92
26158;BMP280;67284;44.782;10.282;2023-12-04T13:05:12;101411.72;;;7.97
26158;BMP280;67284;44.782;10.282;2023-12-04T13:10:04;101410.00;;;7.97
26158;BMP280;67284;44.782;10.282;2023-12-04T13:14:56;101398.13;;;8.04
26158;BMP280;67284;44.782;10.282;2023-12-04T13:19:48;101399.75;;;7.97
26158;BMP280;67284;44.782;10.282;2023-12-04T13:24:40;101404.63;;;7.76
26158;BMP280;67284;44.782;10.282;2023-12-04T13:29:32;101399.38;;;7.66
26158;BMP280;67284;44.782;10.282;2023-12-04T13:34:24;101394.22;;;7.63
26158;BMP280;67284;44.782;10.282;2023-12-04T13:39:16;101389.09;;;7.63
26158;BMP280;67284;44.782;10.282;2023-12-04T13:44:08;101388.16;;;7.58
26158;BMP280;67284;44.782;10.282;2023-12-04T13:49:00;101394.06;;;7.53
26158;BMP280;67284;44.782;10.282;2023-12-04T13:53:52;101388.16;;;7.60
26158;BMP280;67284;44.782;10.282;2023-12-04T13:58:52;101395.06;;;7.65
26158;BMP280;67284;44.782;10.282;2023-12-04T14:03:51;101405.88;;;7.42
26158;BMP280;67284;44.782;10.282;2023-12-04T14:08:43;101390.66;;;7.54
26158;BMP280;67284;44.782;10.282;2023-12-04T14:13:36;101391.63;;;7.60
26158;BMP280;67284;44.782;10.282;2023-12-04T14:18:27;101403.59;;;7.64
26158;BMP280;67284;44.782;10.282;2023-12-04T14:23:22;101394.25;;;7.68
26158;BMP280;67284;44.782;10.282;2023-12-04T14:28:14;101395.97;;;7.66
26158;BMP280;67284;44.782;10.282;2023-12-04T14:33:11;101399.31;;;7.60
26158;BMP280;67284;44.782;10.282;2023-12-04T14:38:03;101405.22;;;7.56
26158;BMP280;67284;44.782;10.282;2023-12-04T14:42:56;101396.84;;;7.69
26158;BMP280;67284;44.782;10.282;2023-12-04T14:47:48;101379.84;;;7.74
26158;BMP280;67284;44.782;10.282;2023-12-04T14:52:43;101376.28;;;7.63
26158;BMP280;67284;44.782;10.282;2023-12-04T14:57:41;101373.59;;;7.56
26158;BMP280;67284;44.782;10.282;2023-12-04T15:02:33;101369.41;;;7.61
26158;BMP280;67284;44.782;10.282;2023-12-04T15:07:44;101369.44;;;7.62
26158;BMP280;67284;44.782;10.282;2023-12-04T15:12:56;101364.38;;;7.68
26158;BMP280;67284;44.782;10.282;2023-12-04T15:18:23;101347.38;;;7.73
26158;BMP280;67284;44.782;10.282;2023-12-04T15:23:34;101338.94;;;7.81
26158;BMP280;67284;44.782;10.282;2023-12-04T15:28:27;101316.78;;;7.88
26158;BMP280;67284;44.782;10.282;2023-12-04T15:33:19;101310.00;;;7.93
26158;BMP280;67284;44.782;10.282;2023-12-04T15:38:12;101312.59;;;7.94
26158;BMP280;67284;44.782;10.282;2023-12-04T15:43:04;101321.16;;;7.96
26158;BMP280;67284;44.782;10.282;2023-12-04T15:47:56;101333.81;;;7.83
26158;BMP280;67284;44.782;10.282;2023-12-04T15:52:48;101332.97;;;7.84
26158;BMP280;67284;44.782;10.282;2023-12-04T15:57:40;101331.16;;;7.74
26158;BMP280;67284;44.782;10.282;2023-12-04T16:02:33;101333.75;;;7.77
26158;BMP280;67284;44.782;10.282;2023-12-04T16:07:25;101334.34;;;7.57
26158;BMP280;67284;44.782;10.282;2023-12-04T16:12:17;101324.28;;;7.69
26158;BMP280;67284;44.782;10.282;2023-12-04T16:17:09;101326.06;;;7.76
26158;BMP280;67284;44.782;10.282;2023-12-04T16:22:00;101321.81;;;7.79
26158;BMP280;67284;44.782;10.282;2023-12-04T16:26:52;101325.28;;;7.81
26158;BMP280;67284;44.782;10.282;2023-12-04T16:31:46;101322.78;;;7.88
26158;BMP280;67284;44.782;10.282;2023-12-04T16:36:38;101317.63;;;7.87
26158;BMP280;67284;44.782;10.282;2023-12-04T16:41:30;101314.94;;;7.76
26158;BMP280;67284;44.782;10.282;2023-12-04T16:46:22;101313.22;;;7.74
26158;BMP280;67284;44.782;10.282;2023-12-04T16:51:14;101309.81;;;7.75
26158;BMP280;67284;44.782;10.282;2023-12-04T16:56:13;101309.81;;;7.76
26158;BMP280;67284;44.782;10.282;2023-12-04T17:01:05;101306.34;;;7.70
26158;BMP280;67284;44.782;10.282;2023-12-04T17:05:57;101304.66;;;7.72
26158;BMP280;67284;44.782;10.282;2023-12-04T17:10:53;101289.22;;;7.66
26158;BMP280;67284;44.782;10.282;2023-12-04T17:15:45;101295.22;;;7.68
26158;BMP280;67284;44.782;10.282;2023-12-04T17:20:37;101301.09;;;7.60
26158;BMP280;67284;44.782;10.282;2023-12-04T17:25:29;101297.75;;;7.65
26158;BMP280;67284;44.782;10.282;2023-12-04T17:30:22;101292.69;;;7.71
26158;BMP280;67284;44.782;10.282;2023-12-04T17:35:14;101304.66;;;7.72
26158;BMP280;67284;44.782;10.282;2023-12-04T17:40:07;101303.03;;;7.80
26158;BMP280;67284;44.782;10.282;2023-12-04T17:45:01;101290.28;;;7.86
26158;BMP280;67284;44.782;10.282;2023-12-04T17:49:53;101285.19;;;7.90
26158;BMP280;67284;44.782;10.282;2023-12-04T17:54:45;101270.72;;;7.94
26158;BMP280;67284;44.782;10.282;2023-12-04T17:59:38;101285.22;;;7.93
26158;BMP280;67284;44.782;10.282;2023-12-04T18:04:30;101272.47;;;7.98
26158;BMP280;67284;44.782;10.282;2023-12-04T18:09:22;101293.81;;;7.97
26158;BMP280;67284;44.782;10.282;2023-12-04T18:14:14;101290.44;;;7.99
26158;BMP280;67284;44.782;10.282;2023-12-04T18:19:06;101298.97;;;8.01
26158;BMP280;67284;44.782;10.282;2023-12-04T18:23:58;101275.94;;;8.03
26158;BMP280;67284;44.782;10.282;2023-12-04T18:28:51;101263.06;;;7.98
26158;BMP280;67284;44.782;10.282;2023-12-04T18:33:45;101265.69;;;8.03
26158;BMP280;67284;44.782;10.282;2023-12-04T18:38:52;101259.69;;;8.02
26158;BMP280;67284;44.782;10.282;2023-12-04T18:43:46;101255.38;;;7.95
26158;BMP280;67284;44.782;10.282;2023-12-04T18:48:45;101263.63;;;7.69
26158;BMP280;67284;44.782;10.282;2023-12-04T18:53:37;101269.66;;;7.73
26158;BMP280;67284;44.782;10.282;2023-12-04T18:58:29;101267.13;;;7.74
26158;BMP280;67284;44.782;10.282;2023-12-04T19:03:21;101273.97;;;7.78
26158;BMP280;67284;44.782;10.282;2023-12-04T19:08:14;101259.38;;;7.71
26158;BMP280;67284;44.782;10.282;2023-12-04T19:13:07;101257.75;;;7.79
26158;BMP280;67284;44.782;10.282;2023-12-04T19:18:00;101252.72;;;7.88
26158;BMP280;67284;44.782;10.282;2023-12-04T19:22:52;101252.63;;;7.79
26158;BMP280;67284;44.782;10.282;2023-12-04T19:27:44;101233.06;;;7.87
26158;BMP280;67284;44.782;10.282;2023-12-04T19:32:36;101228.84;;;7.93
26158;BMP280;67284;44.782;10.282;2023-12-04T19:37:28;101226.28;;;7.92
26158;BMP280;67284;44.782;10.282;2023-12-04T19:42:20;101217.78;;;7.96
26158;BMP280;67284;44.782;10.282;2023-12-04T19:47:12;101223.72;;;7.93
26158;BMP280;67284;44.782;10.282;2023-12-04T19:52:04;101220.34;;;7.97
26158;BMP280;67284;44.782;10.282;2023-12-04T19:56:56;101217.78;;;7.99
26158;BMP280;67284;44.782;10.282;2023-12-04T20:01:48;101210.13;;;8.00
26158;BMP280;67284;44.782;10.282;2023-12-04T20:06:40;101215.25;;;8.02
26158;BMP280;67284;44.782;10.282;2023-12-04T20:11:32;101200.75;;;8.01
26158;BMP280;67284;44.782;10.282;2023-12-04T20:16:24;101198.19;;;8.04
26158;BMP280;67284;44.782;10.282;2023-12-04T20:21:15;101199.88;;;8.00
26158;BMP280;67284;44.782;10.282;2023-12-04T20:26:07;101193.91;;;8.03
26158;BMP280;67284;44.782;10.282;2023-12-04T20:30:59;101185.41;;;8.05
26158;BMP280;67284;44.782;10.282;2023-12-04T20:35:51;101171.69;;;8.02
26158;BMP280;67284;44.782;10.282;2023-12-04T20:40:45;101179.34;;;7.99
26158;BMP280;67284;44.782;10.282;2023-12-04T20:45:38;101165.66;;;7.94
26158;BMP280;67284;44.782;10.282;2023-12-04T20:50:31;101152.81;;;7.91
26158;BMP280;67284;44.782;10.282;2023-12-04T20:55:23;101157.09;;;7.93
26158;BMP280;67284;44.782;10.282;2023-12-04T21:00:15;101150.16;;;7.79
26158;BMP280;67284;44.782;10.282;2023-12-04T21:05:07;101162.97;;;7.79
26158;BMP280;67284;44.782;10.282;2023-12-04T21:10:00;101150.16;;;7.80
26158;BMP280;67284;44.782;10.282;2023-12-04T21:14:52;101154.28;;;7.62
26158;BMP280;67284;44.782;10.282;2023-12-04T21:19:45;101149.19;;;7.68
26158;BMP280;67284;44.782;10.282;2023-12-04T21:24:37;101143.16;;;7.57
26158;BMP280;67284;44.782;10.282;2023-12-04T21:29:29;101147.28;;;7.43
26158;BMP280;67284;44.782;10.282;2023-12-04T21:34:21;101143.75;;;7.34
26158;BMP280;67284;44.782;10.282;2023-12-04T21:39:13;101140.28;;;7.30
26158;BMP280;67284;44.782;10.282;2023-12-04T21:44:05;101128.38;;;7.32
26158;BMP280;67284;44.782;10.282;2023-12-04T21:48:57;101128.47;;;7.41
26158;BMP280;67284;44.782;10.282;2023-12-04T21:53:51;101126.88;;;7.52
26158;BMP280;67284;44.782;10.282;2023-12-04T21:58:43;101129.38;;;7.46
26158;BMP280;67284;44.782;10.282;2023-12-04T22:03:54;101101.31;;;7.60
26158;BMP280;67284;44.782;10.282;2023-12-04T22:08:46;101105.66;;;7.70
26158;BMP280;67284;44.782;10.282;2023-12-04T22:13:37;101104.78;;;7.63
26158;BMP280;67284;44.782;10.282;2023-12-04T22:18:29;101093.56;;;7.52
26158;BMP280;67284;44.782;10.282;2023-12-04T22:23:24;101099.66;;;7.65
26158;BMP280;67284;44.782;10.282;2023-12-04T22:28:15;101101.28;;;7.57
26158;BMP280;67284;44.782;10.282;2023-12-04T22:33:07;101110.47;;;7.32
26158;BMP280;67284;44.782;10.282;2023-12-04T22:37:59;101120.53;;;7.15
26158;BMP280;67284;44.782;10.282;2023-12-04T22:42:52;101097.47;;;7.13
26158;BMP280;67284;44.782;10.282;2023-12-04T22:47:44;101103.47;;;7.17
26158;BMP280;67284;44.782;10.282;2023-12-04T22:52:36;101092.50;;;7.26
26158;BMP280;67284;44.782;10.282;2023-12-04T22:57:28;101090.88;;;7.39
26158;BMP280;67284;44.782;10.282;2023-12-04T23:02:20;101100.19;;;7.26
26158;BMP280;67284;44.782;10.282;2023-12-04T23:07:12;101088.88;;;7.10
26158;BMP280;67284;44.782;10.282;2023-12-04T23:12:04;101085.41;;;7.02
26158;BMP280;67284;44.782;10.282;2023-12-04T23:16:57;101077.63;;;6.94
26158;BMP280;67284;44.782;10.282;2023-12-04T23:21:50;101082.72;;;6.91
26158;BMP280;67284;44.782;10.282;2023-12-04T23:26:42;101081.91;;;6.94
26158;BMP280;67284;44.782;10.282;2023-12-04T23:31:35;101069.94;;;6.93
26158;BMP280;67284;44.782;10.282;2023-12-04T23:36:27;101069.03;;;6.83
26158;BMP280;67284;44.782;10.282;2023-12-04T23:41:19;101064.72;;;6.81
26158;BMP280;67284;44.782;10.282;2023-12-04T23:46:11;101063.81;;;6.77
26158;BMP280;67284;44.782;10.282;2023-12-04T23:51:03;101055.38;;;6.84
26158;BMP280;67284;44.782;10.282;2023-12-04T23:55:56;101038.34;;;6.85
